About Axiom Aviation

This author has not yet filled in any details.
So far Axiom Aviation has created 11 blog entries.

Login

Current METAR

KOGD 172153Z VRB03KT 10SM CLR 01/M06 A3018 RMK AO2 SLP233 T00111061